Time;durP1;ratioP1;P1;durP2;ratioP2;P2;SDS_P1;SDS_P2;PMS_P1;PMS_P2;Temp;Humidity;BMP_temperature;BMP_pressure;BME280_temperature;BME280_humidity;BME280_pressure;Samples;Min_cycle;Max_cycle;Signal;HPM_P1;HPM_P2
2024/01/21 00:00:17;;;;;;;;;96.00;72.00;;;;;-2.68;63.78;100995.84;4841854;29;9519;-82
2024/01/21 00:03:06;;;;;;;;;97.33;73.33;;;;;-2.18;63.38;101002.03;4858915;29;9312;-80
2024/01/21 00:05:36;;;;;;;;;63.75;51.50;;;;;-2.15;61.94;101001.28;4857584;29;9378;-83
2024/01/21 00:08:06;;;;;;;;;93.67;74.33;;;;;-2.73;63.21;101009.25;4857583;29;9562;-80
2024/01/21 00:10:35;;;;;;;;;93.00;71.33;;;;;-2.71;62.74;101008.56;4857851;29;9536;-85
2024/01/21 00:13:04;;;;;;;;;95.67;73.67;;;;;-2.29;62.71;101005.69;4845589;29;9377;-84
2024/01/21 00:15:33;;;;;;;;;94.00;74.00;;;;;-2.05;62.33;101013.88;4861942;29;9383;-83
2024/01/21 00:18:02;;;;;;;;;103.50;78.50;;;;;-1.91;61.24;101002.59;4860181;29;9305;-80
2024/01/21 00:20:32;;;;;;;;;103.50;81.25;;;;;-1.72;61.60;101004.47;4858615;29;9572;-82
2024/01/21 00:23:03;;;;;;;;;99.00;78.00;;;;;-1.53;61.30;101003.72;4858672;29;9826;-80
2024/01/21 00:25:32;;;;;;;;;97.50;76.00;;;;;-1.42;61.32;101008.56;4842311;29;9796;-79
2024/01/21 00:28:01;;;;;;;;;95.75;78.25;;;;;-1.34;61.49;101004.66;4847231;29;9769;-81
2024/01/21 00:30:30;;;;;;;;;103.25;79.00;;;;;-1.28;61.02;101004.97;4848536;29;9682;-83
2024/01/21 00:32:59;;;;;;;;;96.75;78.25;;;;;-1.23;60.56;101000.06;4868779;29;9816;-80
2024/01/21 00:35:28;;;;;;;;;106.25;87.50;;;;;-1.16;59.64;101010.75;4849518;29;9763;-83
2024/01/21 00:37:57;;;;;;;;;98.50;76.00;;;;;-1.16;60.01;101009.88;4876473;29;9940;-82
2024/01/21 00:40:27;;;;;;;;;99.75;77.00;;;;;-1.11;59.64;101006.72;4849633;29;10024;-81
2024/01/21 00:42:58;;;;;;;;;91.00;73.67;;;;;-1.07;59.60;101005.16;4866125;29;9782;-81
2024/01/21 00:45:27;;;;;;;;;104.00;79.00;;;;;-1.03;59.89;101008.78;4858508;29;9513;-82
2024/01/21 00:47:57;;;;;;;;;99.50;77.75;;;;;-1.07;59.43;101012.91;4861643;29;9711;-80
2024/01/21 00:50:26;;;;;;;;;102.25;78.25;;;;;-1.08;59.76;101016.31;4842449;29;9864;-85
2024/01/21 00:52:55;;;;;;;;;99.00;75.75;;;;;-1.06;58.53;101018.97;4841524;29;9681;-81
2024/01/21 00:55:24;;;;;;;;;95.25;75.00;;;;;-1.14;58.86;101021.16;4856766;29;9614;-80
2024/01/21 00:57:54;;;;;;;;;91.00;69.75;;;;;-1.16;58.15;101023.66;4856845;29;9599;-83
2024/01/21 01:00:25;;;;;;;;;93.00;70.33;;;;;-1.23;58.67;101019.00;4872390;29;10593;-79
2024/01/21 01:02:54;;;;;;;;;90.67;69.33;;;;;-1.23;58.85;101024.16;4857480;29;9582;-81
2024/01/21 01:05:23;;;;;;;;;93.00;76.00;;;;;-1.19;59.12;101022.63;4840247;29;9283;-83
2024/01/21 01:07:53;;;;;;;;;100.50;75.50;;;;;-1.19;59.05;101025.19;4857970;29;9684;-82
2024/01/21 01:10:21;;;;;;;;;92.67;73.67;;;;;-1.23;58.85;101020.69;4840938;29;9616;-80
2024/01/21 01:12:50;;;;;;;;;85.00;67.67;;;;;-1.19;59.28;101025.19;4855703;29;9299;-81
2024/01/21 01:15:21;;;;;;;;;91.33;73.33;;;;;-1.17;59.27;101021.00;4871883;29;9522;-80
2024/01/21 01:17:51;;;;;;;;;82.67;67.00;;;;;-1.19;58.95;101030.38;4841005;29;9292;-79
2024/01/21 01:20:20;;;;;;;;;101.50;78.50;;;;;-1.21;58.98;101025.13;4871845;29;9400;-79
2024/01/21 01:22:49;;;;;;;;;90.25;73.50;;;;;-1.23;58.65;101020.69;4857640;29;10285;-81
2024/01/21 01:25:18;;;;;;;;;84.67;67.67;;;;;-1.20;58.46;101016.59;4839550;29;9600;-79
2024/01/21 01:27:47;;;;;;;;;91.00;71.67;;;;;-1.21;58.92;101019.97;4839618;29;9474;-84
2024/01/21 01:30:16;;;;;;;;;102.50;75.75;;;;;-1.21;58.53;101024.25;4839615;29;9323;-82
2024/01/21 01:32:47;;;;;;;;;88.67;71.33;;;;;-1.19;58.52;101023.50;4824953;29;9794;-80
2024/01/21 01:35:16;;;;;;;;;89.67;72.33;;;;;-1.19;58.63;101022.63;4855224;29;9516;-83
2024/01/21 01:37:45;;;;;;;;;93.25;72.75;;;;;-1.23;58.54;101029.31;4824831;29;9397;-81
2024/01/21 01:40:17;;;;;;;;;90.67;71.00;;;;;-1.25;58.26;101023.19;4839743;29;9530;-83
2024/01/21 01:42:46;;;;;;;;;91.33;69.33;;;;;-1.17;58.56;101024.47;4854647;29;9367;-86
2024/01/21 01:45:15;;;;;;;;;84.33;66.33;;;;;-1.29;58.62;101019.56;4839545;29;9528;-79
2024/01/21 01:47:44;;;;;;;;;96.67;76.33;;;;;-1.31;58.52;101020.31;4839383;29;9342;-83
2024/01/21 01:50:15;;;;;;;;;92.33;70.67;;;;;-1.26;58.86;101017.94;4854911;29;9549;-82
2024/01/21 01:52:45;;;;;;;;;87.67;71.00;;;;;-1.30;58.64;101022.06;4823493;29;9427;-85
2024/01/21 01:55:14;;;;;;;;;75.67;52.33;;;;;-1.30;59.12;101020.41;4825239;29;9053;-80
2024/01/21 01:57:46;;;;;;;;;90.67;68.00;;;;;-1.31;58.27;101018.63;4854438;29;9320;-82
2024/01/21 02:00:16;;;;;;;;;87.67;69.67;;;;;-1.32;58.31;101023.69;4854673;29;9387;-80
2024/01/21 02:02:46;;;;;;;;;82.00;69.00;;;;;-1.31;58.53;101022.91;4861992;29;9242;-81
2024/01/21 02:05:16;;;;;;;;;86.00;69.33;;;;;-1.37;58.45;101020.88;4873407;29;9338;-83
2024/01/21 02:07:45;;;;;;;;;83.67;68.33;;;;;-1.38;58.62;101019.09;4873758;29;9048;-82
2024/01/21 02:10:15;;;;;;;;;85.33;68.00;;;;;-1.49;58.32;101018.53;4859793;29;9915;-79
2024/01/21 02:12:44;;;;;;;;;15.67;11.00;;;;;-1.47;58.44;101023.78;4872344;29;8982;-80
2024/01/21 02:15:13;;;;;;;;;85.00;69.00;;;;;-1.45;58.31;101021.28;4851859;29;8970;-81
2024/01/21 02:17:43;;;;;;;;;81.00;65.50;;;;;-1.45;58.03;101023.88;4841109;29;9208;-80
2024/01/21 02:20:12;;;;;;;;;85.67;69.00;;;;;-1.46;58.32;101030.72;4841843;29;8894;-79
2024/01/21 02:22:43;;;;;;;;;83.00;66.50;;;;;-1.42;58.29;101031.78;4857756;29;9066;-80
2024/01/21 02:25:13;;;;;;;;;87.33;69.33;;;;;-1.41;58.13;101036.09;4838746;29;8992;-79
2024/01/21 02:27:42;;;;;;;;;84.50;67.00;;;;;-1.46;58.28;101035.88;4839286;29;8984;-81
2024/01/21 02:30:11;;;;;;;;;85.00;70.00;;;;;-1.48;58.38;101032.34;4838818;29;8961;-82
2024/01/21 02:32:40;;;;;;;;;80.33;65.67;;;;;-1.39;58.37;101037.06;4838899;29;8957;-79
2024/01/21 02:35:09;;;;;;;;;79.25;64.25;;;;;-1.50;57.99;101037.41;4854725;29;9260;-82
2024/01/21 02:37:38;;;;;;;;;85.00;69.00;;;;;-1.47;57.88;101036.66;4839354;29;8932;-82
2024/01/21 02:40:08;;;;;;;;;82.75;68.00;;;;;-1.45;58.27;101042.78;4854624;29;9225;-81
2024/01/21 02:42:39;;;;;;;;;84.67;67.33;;;;;-1.45;58.34;101034.19;4854242;29;8894;-83
2024/01/21 02:45:09;;;;;;;;;84.25;65.00;;;;;-1.50;58.25;101029.69;4838730;29;8993;-79
2024/01/21 02:47:38;;;;;;;;;83.50;67.75;;;;;-1.49;57.96;101025.41;4839156;29;8886;-82
2024/01/21 02:50:07;;;;;;;;;90.50;69.00;;;;;-1.47;57.83;101025.47;4855339;29;8892;-84
2024/01/21 02:52:36;;;;;;;;;81.50;66.00;;;;;-1.48;57.85;101019.44;4857304;29;8960;-81
2024/01/21 02:55:06;;;;;;;;;78.33;66.00;;;;;-1.55;57.66;101025.97;4877145;29;8982;-80
2024/01/21 02:57:35;;;;;;;;;82.67;64.33;;;;;-1.69;57.48;101027.84;4861894;29;8995;-80
2024/01/21 03:00:07;;;;;;;;;85.67;69.33;;;;;-1.60;58.27;101026.53;4861976;29;9052;-80
2024/01/21 03:02:37;;;;;;;;;78.67;63.33;;;;;-1.65;58.05;101030.59;4857234;29;9059;-81
2024/01/21 03:05:07;;;;;;;;;84.00;67.75;;;;;-1.66;57.88;101029.69;4853345;29;9123;-81
2024/01/21 03:07:36;;;;;;;;;79.00;63.25;;;;;-1.63;57.98;101028.97;4865010;29;8862;-79
2024/01/21 03:10:06;;;;;;;;;84.50;65.75;;;;;-1.65;57.62;101023.72;4858263;29;8891;-79
2024/01/21 03:12:36;;;;;;;;;79.25;63.75;;;;;-1.64;58.31;101028.06;4813084;29;9062;-83
2024/01/21 03:15:07;;;;;;;;;83.00;66.25;;;;;-1.62;57.93;101029.03;4857211;29;8882;-82
2024/01/21 03:17:37;;;;;;;;;84.00;63.50;;;;;-1.91;57.28;101038.69;4857264;29;8917;-79
2024/01/21 03:20:07;;;;;;;;;79.50;62.50;;;;;-1.78;58.33;101039.34;4857334;29;8898;-83
2024/01/21 03:22:36;;;;;;;;;79.50;65.00;;;;;-1.80;58.39;101041.84;4857509;29;8914;-80
2024/01/21 03:25:05;;;;;;;;;85.00;64.50;;;;;-1.77;58.52;101046.25;4841653;29;9060;-78
2024/01/21 03:27:34;;;;;;;;;84.25;63.75;;;;;-1.79;58.01;101037.56;4826811;29;8885;-84
2024/01/21 03:30:03;;;;;;;;;78.75;62.75;;;;;-1.91;57.88;101027.50;4797256;29;8878;-82
2024/01/21 03:32:34;;;;;;;;;79.25;64.50;;;;;-1.84;58.04;101039.91;4841987;29;8874;-80
2024/01/21 03:35:03;;;;;;;;;79.50;66.00;;;;;-1.86;58.00;101036.38;4841661;29;8889;-79
2024/01/21 03:37:32;;;;;;;;;78.75;63.50;;;;;-1.83;58.01;101033.94;4859595;29;8869;-81
2024/01/21 03:40:01;;;;;;;;;82.50;66.25;;;;;-1.80;57.79;101033.22;4842460;29;8903;-81
2024/01/21 03:42:30;;;;;;;;;86.50;66.25;;;;;-1.84;57.54;101031.28;4874426;29;8880;-81
2024/01/21 03:44:59;;;;;;;;;83.25;64.50;;;;;-1.79;57.61;101040.16;4858893;29;9011;-79
2024/01/21 03:47:28;;;;;;;;;83.50;67.25;;;;;-1.80;57.90;101038.38;4873530;29;9016;-79
2024/01/21 03:50:00;;;;;;;;;78.75;63.25;;;;;-1.76;57.95;101045.47;4862041;29;8900;-79
2024/01/21 03:52:30;;;;;;;;;81.75;63.25;;;;;-1.85;57.59;101045.84;4870588;29;8881;-79
2024/01/21 03:54:58;;;;;;;;;74.75;54.75;;;;;-1.87;57.82;101044.91;4864498;29;8885;-80
2024/01/21 03:57:27;;;;;;;;;72.75;62.75;;;;;-1.81;58.24;101050.38;4862497;29;8873;-81
2024/01/21 03:59:56;;;;;;;;;84.00;65.50;;;;;-1.74;58.49;101057.63;4864210;29;8893;-82
2024/01/21 04:02:26;;;;;;;;;78.00;64.00;;;;;-1.87;58.54;101056.06;4861802;29;8889;-80
2024/01/21 04:04:55;;;;;;;;;87.00;66.00;;;;;-1.85;58.23;101055.28;4856766;29;8932;-81
2024/01/21 04:07:26;;;;;;;;;79.00;62.00;;;;;-1.78;58.22;101065.13;4858237;29;8857;-79
2024/01/21 04:09:55;;;;;;;;;76.00;61.25;;;;;-1.83;58.16;101070.03;4857980;29;8905;-80
2024/01/21 04:12:24;;;;;;;;;83.75;65.50;;;;;-1.80;58.08;101071.91;4859596;29;8845;-80
2024/01/21 04:14:53;;;;;;;;;75.25;60.25;;;;;-1.79;58.07;101078.81;4857908;29;8861;-80
2024/01/21 04:17:24;;;;;;;;;78.50;62.00;;;;;-1.87;58.04;101079.28;4867524;29;8899;-80
2024/01/21 04:19:53;;;;;;;;;77.50;60.25;;;;;-1.91;57.64;101079.03;4852560;29;9036;-79
2024/01/21 04:22:22;;;;;;;;;78.00;61.50;;;;;-1.88;57.48;101077.53;4864117;29;8913;-79
2024/01/21 04:24:52;;;;;;;;;77.50;63.75;;;;;-1.90;57.62;101073.97;4861613;29;8899;-80
2024/01/21 04:27:21;;;;;;;;;77.75;63.00;;;;;-1.90;57.92;101081.72;4842118;29;8884;-79
2024/01/21 04:29:50;;;;;;;;;79.25;64.00;;;;;-1.89;57.48;101077.44;4862612;29;8873;-79
2024/01/21 04:32:19;;;;;;;;;73.25;60.00;;;;;-1.91;57.88;101082.50;4865565;29;8976;-80
2024/01/21 04:34:49;;;;;;;;;68.25;58.25;;;;;-1.88;57.74;101086.94;4864493;29;8895;-82
2024/01/21 04:37:18;;;;;;;;;71.75;59.00;;;;;-1.89;57.43;101078.31;4859514;29;8876;-81
2024/01/21 04:39:47;;;;;;;;;78.00;60.00;;;;;-1.93;57.64;101083.22;4840608;29;9025;-80
2024/01/21 04:42:18;;;;;;;;;78.00;60.75;;;;;-1.93;57.48;101088.38;4856261;29;8866;-80
2024/01/21 04:44:47;;;;;;;;;73.00;59.00;;;;;-2.02;57.42;101091.31;4840768;29;8878;-79
2024/01/21 04:47:16;;;;;;;;;71.75;58.50;;;;;-1.98;57.23;101084.66;4852102;29;8869;-81
2024/01/21 04:49:44;;;;;;;;;69.25;55.75;;;;;-1.97;57.44;101083.88;4822908;29;9087;-80
2024/01/21 04:52:14;;;;;;;;;68.25;57.75;;;;;-1.98;58.00;101082.97;4828315;29;8901;-82
2024/01/21 04:54:43;;;;;;;;;75.50;57.00;;;;;-1.88;57.76;101074.06;4825570;29;8930;-86
2024/01/21 04:57:12;;;;;;;;;69.75;58.00;;;;;-2.08;58.13;101091.88;4856262;29;8885;-82
2024/01/21 05:00:03;;;;;;;;;71.25;58.00;;;;;-1.98;57.39;101090.69;4836833;29;8897;-84
2024/01/21 05:02:32;;;;;;;;;72.75;55.75;;;;;-2.15;57.83;101088.88;4836907;29;8904;-80
2024/01/21 05:05:01;;;;;;;;;119.75;113.00;;;;;-2.12;57.88;101095.09;4791703;29;8873;-80
2024/01/21 05:07:30;;;;;;;;;77.67;61.33;;;;;-2.25;57.27;101102.06;4822386;29;11734;-80
2024/01/21 05:09:59;;;;;;;;;95.00;75.00;;;;;-2.21;57.63;101106.56;4823682;29;9768;-86
2024/01/21 05:12:28;;;;;;;;;77.00;61.67;;;;;-2.14;58.27;101106.13;4821842;29;9646;-81
2024/01/21 05:14:57;;;;;;;;;65.75;53.75;;;;;-2.15;57.65;101101.75;4817671;29;9069;-85
2024/01/21 05:17:28;;;;;;;;;65.00;52.00;;;;;-2.07;57.86;101106.56;4804223;29;8894;-79
2024/01/21 05:19:56;;;;;;;;;73.50;57.50;;;;;-2.04;57.73;101107.53;4788789;29;8895;-80
2024/01/21 05:22:25;;;;;;;;;67.00;55.50;;;;;-2.02;57.45;101106.78;4789106;29;8942;-80
2024/01/21 05:24:54;;;;;;;;;67.75;55.75;;;;;-1.97;57.27;101112.22;4788891;29;8872;-83
2024/01/21 05:27:23;;;;;;;;;69.25;57.00;;;;;-2.00;57.44;101119.75;4818694;29;8988;-82
2024/01/21 05:29:52;;;;;;;;;69.00;56.50;;;;;-1.96;57.23;101119.13;4788835;29;8942;-80
2024/01/21 05:32:21;;;;;;;;;68.00;54.00;;;;;-1.97;56.71;101125.97;4818343;29;8871;-80
2024/01/21 05:34:51;;;;;;;;;55.25;46.75;;;;;-2.13;57.06;101119.09;4803174;29;8906;-83
2024/01/21 05:37:20;;;;;;;;;65.75;53.75;;;;;-2.08;57.28;101116.75;4809256;29;8868;-84
2024/01/21 05:39:49;;;;;;;;;64.50;53.50;;;;;-2.09;56.70;101123.63;4836541;29;9000;-81
2024/01/21 05:42:18;;;;;;;;;69.00;56.50;;;;;-2.04;57.16;101130.72;4822539;29;8885;-80
2024/01/21 05:44:47;;;;;;;;;62.50;49.75;;;;;-2.08;56.45;101127.06;4814509;29;8892;-84
2024/01/21 05:47:17;;;;;;;;;67.50;54.00;;;;;-2.05;57.10;101131.50;4848994;29;8877;-85
2024/01/21 05:49:46;;;;;;;;;67.50;55.75;;;;;-2.04;57.34;101129.00;4855968;29;8990;-84
2024/01/21 05:52:16;;;;;;;;;65.25;54.25;;;;;-2.03;56.99;101125.66;4856864;29;8987;-80
2024/01/21 05:54:46;;;;;;;;;103.75;78.75;;;;;-2.05;57.02;101122.09;4857542;29;8960;-84
2024/01/21 05:57:15;;;;;;;;;81.25;63.75;;;;;-2.01;56.88;101133.47;4831313;29;9785;-80
2024/01/21 05:59:44;;;;;;;;;66.75;55.75;;;;;-2.01;56.61;101128.31;4819783;29;8996;-81
2024/01/21 06:02:14;;;;;;;;;66.25;50.25;;;;;-2.07;56.45;101131.44;4819637;29;8889;-81
2024/01/21 06:04:43;;;;;;;;;60.50;50.75;;;;;-2.02;56.83;101127.41;4819387;29;8905;-80
2024/01/21 06:07:12;;;;;;;;;69.50;57.75;;;;;-2.04;56.52;101133.28;4819597;29;8906;-85
2024/01/21 06:09:42;;;;;;;;;65.50;52.50;;;;;-2.00;57.12;101135.22;4819659;29;8882;-81
2024/01/21 06:12:11;;;;;;;;;64.00;53.50;;;;;-2.16;56.29;101136.94;4819492;29;8874;-79
2024/01/21 06:14:40;;;;;;;;;66.50;56.25;;;;;-2.11;56.61;101139.78;4820901;29;9039;-81
2024/01/21 06:17:09;;;;;;;;;67.00;54.00;;;;;-2.27;56.17;101149.22;4850535;29;8865;-83
2024/01/21 06:19:41;;;;;;;;;67.75;49.50;;;;;-2.24;56.63;101150.19;4857612;29;8881;-80
2024/01/21 06:22:10;;;;;;;;;70.00;55.25;;;;;-2.27;56.59;101146.63;4862849;29;9035;-81
2024/01/21 06:24:39;;;;;;;;;59.75;49.00;;;;;-2.13;56.72;101143.94;4863170;29;8861;-81
2024/01/21 06:27:10;;;;;;;;;52.00;45.75;;;;;-2.07;56.49;101141.75;4825544;29;9580;-79
2024/01/21 06:29:38;;;;;;;;;62.50;52.50;;;;;-2.02;56.31;101152.28;4858154;29;8876;-82
2024/01/21 06:32:08;;;;;;;;;62.75;52.00;;;;;-2.16;56.40;101151.53;4843507;29;8901;-81
2024/01/21 06:34:36;;;;;;;;;68.75;55.50;;;;;-2.15;56.17;101158.44;4855872;29;8888;-81
2024/01/21 06:37:06;;;;;;;;;57.00;49.00;;;;;-2.10;56.38;101163.03;4856246;29;8885;-79
2024/01/21 06:39:35;;;;;;;;;62.25;52.25;;;;;-2.06;56.64;101161.53;4869524;29;8960;-80
2024/01/21 06:42:04;;;;;;;;;67.50;54.75;;;;;-1.96;56.22;101162.94;4874449;29;8885;-79
2024/01/21 06:44:36;;;;;;;;;99.00;78.00;;;;;-1.82;56.73;101161.16;4829657;29;8968;-82
2024/01/21 06:47:05;;;;;;;;;50.00;41.00;;;;;-1.83;56.16;101167.09;4875246;29;9686;-84
2024/01/21 06:49:34;;;;;;;;;69.50;56.00;;;;;-1.75;56.26;101165.81;4883101;29;8995;-80
2024/01/21 06:52:07;;;;;;;;;67.25;54.25;;;;;-1.75;56.64;101161.56;4867561;29;8877;-81
2024/01/21 06:54:36;;;;;;;;;68.25;51.75;;;;;-1.70;56.31;101173.00;4860382;29;8900;-81
2024/01/21 06:57:05;;;;;;;;;63.75;51.50;;;;;-1.65;56.62;101173.25;4874682;29;8888;-80
2024/01/21 06:59:35;;;;;;;;;62.75;51.50;;;;;-1.80;55.76;101178.47;4860874;29;8915;-80
2024/01/21 07:02:04;;;;;;;;;66.75;57.00;;;;;-1.69;56.17;101182.53;4874762;29;8891;-82
2024/01/21 07:04:33;;;;;;;;;60.50;50.75;;;;;-1.65;55.72;101186.16;4860965;29;8884;-80
2024/01/21 07:07:02;;;;;;;;;64.50;53.00;;;;;-1.62;55.78;101178.56;4859589;29;8873;-82
2024/01/21 07:09:31;;;;;;;;;70.00;58.00;;;;;-1.50;55.57;101192.16;4874747;29;8895;-81
2024/01/21 07:12:00;;;;;;;;;66.50;54.25;;;;;-1.50;55.90;101187.00;4865468;29;8994;-83
2024/01/21 07:14:33;;;;;;;;;66.75;53.50;;;;;-1.42;55.91;101195.16;4859216;29;8865;-84
2024/01/21 07:17:04;;;;;;;;;72.50;58.25;;;;;-1.25;56.49;101185.72;4859398;29;8884;-82
2024/01/21 07:19:33;;;;;;;;;67.00;51.00;;;;;-1.32;56.61;101181.03;4860448;29;8873;-81
2024/01/21 07:22:02;;;;;;;;;71.00;59.00;;;;;-1.21;55.51;101190.25;4874348;29;8885;-85
2024/01/21 07:24:31;;;;;;;;;69.75;58.25;;;;;-1.17;55.37;101191.31;4845055;29;8880;-81
2024/01/21 07:27:00;;;;;;;;;70.00;59.00;;;;;-1.16;55.16;101193.09;4872537;29;8873;-81
2024/01/21 07:29:29;;;;;;;;;71.75;57.00;;;;;-1.17;55.28;101197.34;4868761;29;9038;-83
2024/01/21 07:31:58;;;;;;;;;77.50;62.00;;;;;-1.47;54.80;101203.44;4847810;29;8904;-84
2024/01/21 07:34:29;;;;;;;;;69.50;55.75;;;;;-1.11;56.14;101197.69;4863612;29;8893;-80
2024/01/21 07:36:58;;;;;;;;;72.25;59.00;;;;;-1.50;55.58;101211.91;4861577;29;9619;-82
2024/01/21 07:39:27;;;;;;;;;69.75;58.00;;;;;-1.88;54.65;101210.66;4845145;29;8877;-83
2024/01/21 07:41:56;;;;;;;;;72.75;59.75;;;;;-1.97;55.06;101218.75;4859752;29;8889;-81
2024/01/21 07:44:25;;;;;;;;;69.75;57.50;;;;;-1.74;55.59;101219.16;4839455;29;8900;-82
2024/01/21 07:46:55;;;;;;;;;75.25;62.75;;;;;-1.61;55.95;101213.88;4809345;29;8864;-82
2024/01/21 07:49:23;;;;;;;;;69.75;58.50;;;;;-1.45;55.89;101214.72;4838860;29;8889;-82
2024/01/21 07:51:54;;;;;;;;;75.50;58.50;;;;;-1.19;56.20;101211.84;4837994;29;8887;-83
2024/01/21 07:54:23;;;;;;;;;69.75;56.75;;;;;-0.98;55.70;101213.81;4824198;29;8984;-83
2024/01/21 07:56:52;;;;;;;;;66.75;56.25;;;;;-1.40;54.88;101224.47;4809349;29;9038;-83
2024/01/21 07:59:21;;;;;;;;;72.25;55.75;;;;;-1.04;55.23;101214.38;4823150;29;8893;-81
2024/01/21 08:01:50;;;;;;;;;69.75;56.75;;;;;-1.07;54.67;101209.03;4854291;29;8916;-80
2024/01/21 08:04:19;;;;;;;;;68.75;56.50;;;;;-0.80;55.07;101206.16;4839451;29;9047;-83
2024/01/21 08:06:48;;;;;;;;;67.75;57.00;;;;;-0.59;55.02;101216.69;4858712;29;8860;-81
2024/01/21 08:09:20;;;;;;;;;73.75;60.25;;;;;-0.47;54.54;101217.31;4866543;29;9032;-81
2024/01/21 08:11:52;;;;;;;;;68.50;54.75;;;;;-0.39;54.75;101217.69;4860207;29;9023;-85
2024/01/21 08:14:21;;;;;;;;;71.50;60.25;;;;;-0.36;54.42;101229.06;4839044;29;8889;-81
2024/01/21 08:16:50;;;;;;;;;69.50;53.75;;;;;-1.61;54.92;101244.81;4873106;29;8873;-84
2024/01/21 08:19:20;;;;;;;;;65.25;55.50;;;;;-1.42;55.65;101232.97;4843117;29;9576;-81
2024/01/21 08:21:49;;;;;;;;;64.75;53.50;;;;;-1.29;55.25;101236.28;4828265;29;8960;-82
2024/01/21 08:24:20;;;;;;;;;66.25;52.25;;;;;-1.50;54.56;101245.44;4848383;29;8934;-82
2024/01/21 08:26:49;;;;;;;;;58.75;50.50;;;;;-1.82;54.55;101246.22;4864904;29;9683;-81
2024/01/21 08:29:18;;;;;;;;;62.00;49.50;;;;;-1.87;56.27;101239.06;4845065;29;8865;-84
2024/01/21 08:31:48;;;;;;;;;55.00;49.50;;;;;-2.30;55.35;101241.78;4843332;29;10034;-82
2024/01/21 08:34:17;;;;;;;;;54.25;47.25;;;;;-2.28;56.13;101247.00;4858433;29;8885;-84
2024/01/21 08:36:46;;;;;;;;;57.75;49.25;;;;;-2.25;56.47;101241.16;4842826;29;8877;-84
2024/01/21 08:39:15;;;;;;;;;65.50;51.00;;;;;-1.70;56.65;101237.44;4843193;29;8916;-82
2024/01/21 08:41:46;;;;;;;;;62.50;52.75;;;;;-1.26;56.15;101234.66;4846124;29;9624;-81
2024/01/21 08:44:15;;;;;;;;;55.50;49.50;;;;;-0.99;55.68;101228.41;4860118;29;8885;-82
2024/01/21 08:46:45;;;;;;;;;64.75;53.75;;;;;-0.98;55.10;101230.16;4858291;29;8884;-81
2024/01/21 08:49:14;;;;;;;;;64.50;54.00;;;;;-0.84;54.84;101227.44;4858433;29;8911;-81
2024/01/21 08:51:44;;;;;;;;;54.25;48.75;;;;;-0.68;54.65;101226.56;4844052;29;8968;-83
2024/01/21 08:54:12;;;;;;;;;56.25;50.25;;;;;-0.92;52.71;101235.69;4843015;29;8899;-81
2024/01/21 08:56:42;;;;;;;;;64.00;53.50;;;;;-1.07;55.11;101233.97;4875539;29;8876;-81
2024/01/21 08:59:13;;;;;;;;;55.75;46.75;;;;;-0.63;54.05;101240.59;4868774;29;8899;-80
2024/01/21 09:01:42;;;;;;;;;61.75;50.25;;;;;-0.67;54.58;101230.88;4827224;29;8922;-81
2024/01/21 09:04:11;;;;;;;;;54.75;47.25;;;;;-0.43;53.87;101229.56;4807504;29;9620;-81
2024/01/21 09:06:41;;;;;;;;;61.50;52.00;;;;;-0.67;52.27;101231.81;4837749;29;8889;-84
2024/01/21 09:09:11;;;;;;;;;63.25;51.25;;;;;-1.04;53.39;101226.41;4837555;29;9612;-84
2024/01/21 09:11:41;;;;;;;;;64.00;52.50;;;;;-1.16;54.61;101224.94;4807273;29;8893;-82
2024/01/21 09:14:10;;;;;;;;;54.75;45.50;;;;;-1.17;54.67;101232.59;4823060;29;8908;-83
2024/01/21 09:16:41;;;;;;;;;60.00;50.75;;;;;-1.05;54.29;101229.75;4832572;29;8888;-83
2024/01/21 09:19:10;;;;;;;;;58.50;50.00;;;;;-0.95;54.03;101222.59;4813654;29;8865;-81
2024/01/21 09:21:40;;;;;;;;;69.25;57.00;;;;;-0.74;53.63;101230.59;4856962;29;8935;-80
2024/01/21 09:24:09;;;;;;;;;67.75;54.00;;;;;-0.44;53.18;101222.66;4843240;29;8864;-83
2024/01/21 09:26:38;;;;;;;;;50.00;42.75;;;;;-1.15;53.63;101236.13;4874564;29;8991;-80
2024/01/21 09:29:07;;;;;;;;;64.25;49.50;;;;;-0.96;52.84;101227.69;4843346;29;8880;-81
2024/01/21 09:31:38;;;;;;;;;49.25;44.50;;;;;-0.68;54.35;101232.59;4874341;29;8894;-80
2024/01/21 09:34:08;;;;;;;;;54.50;46.00;;;;;-1.05;53.67;101228.09;4887652;29;9002;-81
2024/01/21 09:36:38;;;;;;;;;48.50;44.75;;;;;-0.59;53.89;101224.44;4875684;29;8963;-82
2024/01/21 09:39:09;;;;;;;;;51.75;44.25;;;;;-0.29;53.96;101231.97;4828724;29;8906;-82
2024/01/21 09:41:44;;;;;;;;;63.75;52.50;;;;;-1.27;52.89;101243.22;4859627;29;8899;-84
2024/01/21 09:44:12;;;;;;;;;49.75;40.25;;;;;-1.78;54.06;101245.56;4858394;29;8896;-80
2024/01/21 09:46:42;;;;;;;;;50.75;42.75;;;;;-2.53;56.55;101242.09;4873949;29;8872;-81
2024/01/21 09:49:14;;;;;;;;;52.50;43.50;;;;;-2.26;56.01;101242.81;4800619;29;8895;-80
2024/01/21 09:51:43;;;;;;;;;59.00;50.50;;;;;-1.62;55.68;101237.88;4859702;29;9003;-82
2024/01/21 09:54:12;;;;;;;;;57.00;48.25;;;;;-1.26;55.35;101232.97;4859302;29;9102;-82
2024/01/21 09:56:43;;;;;;;;;51.75;45.50;;;;;-1.23;54.72;101230.56;4841806;29;8935;-83
2024/01/21 09:59:13;;;;;;;;;56.50;46.50;;;;;-1.95;54.18;101232.59;4872060;29;8885;-82
2024/01/21 10:01:43;;;;;;;;;41.00;39.00;;;;;-2.00;56.24;101228.88;4856828;29;8896;-81
2024/01/21 10:04:16;;;;;;;;;50.50;44.50;;;;;-1.49;55.21;101223.97;4871966;29;8880;-80
2024/01/21 10:06:46;;;;;;;;;33.00;28.75;;;;;-0.90;55.88;101220.25;4857588;29;9635;-80
2024/01/21 10:09:17;;;;;;;;;42.00;38.50;;;;;-0.72;53.96;101220.34;4840212;29;8995;-81
2024/01/21 10:11:50;;;;;;;;;43.75;43.00;;;;;-0.38;53.16;101212.63;4857393;29;8857;-80
2024/01/21 10:14:19;;;;;;;;;51.75;44.50;;;;;-0.88;52.96;101218.66;4858220;29;8885;-81
2024/01/21 10:16:49;;;;;;;;;38.50;33.50;;;;;-0.49;52.47;101213.75;4834708;29;8967;-81
2024/01/21 10:19:26;;;;;;;;;35.75;33.75;;;;;-0.56;51.58;101224.59;4841312;29;8875;-79
2024/01/21 10:22:08;;;;;;;;;37.75;36.25;;;;;-1.80;52.91;101230.00;4841177;29;9710;-81
2024/01/21 10:24:41;;;;;;;;;48.50;40.50;;;;;-1.92;54.89;101227.63;4811204;29;8887;-80
2024/01/21 10:27:11;;;;;;;;;43.00;35.50;;;;;-1.81;54.15;101227.34;4844955;29;8879;-81
2024/01/21 10:29:41;;;;;;;;;45.75;40.50;;;;;-1.69;55.44;101220.31;4860879;29;8914;-80
2024/01/21 10:32:11;;;;;;;;;51.25;42.25;;;;;-1.85;54.77;101220.25;4842651;29;9626;-80
2024/01/21 10:34:44;;;;;;;;;43.00;38.50;;;;;-1.92;54.28;101225.06;4858567;29;8896;-81
2024/01/21 10:37:16;;;;;;;;;52.75;46.00;;;;;-2.29;55.01;101220.34;4859499;29;8880;-80
2024/01/21 10:39:49;;;;;;;;;39.00;36.75;;;;;-1.69;55.39;101215.16;4860609;29;8877;-80
2024/01/21 10:42:21;;;;;;;;;44.75;39.50;;;;;-1.80;53.89;101216.25;4844962;29;8895;-83
2024/01/21 10:44:51;;;;;;;;;36.25;32.50;;;;;-1.68;54.83;101207.47;4855620;29;8971;-81
2024/01/21 10:47:22;;;;;;;;;47.75;43.50;;;;;-1.37;54.89;101204.03;4874150;29;8884;-83
2024/01/21 10:49:53;;;;;;;;;39.00;34.50;;;;;-1.43;53.76;101203.66;4856810;29;8999;-81
2024/01/21 10:52:24;;;;;;;;;48.75;43.25;;;;;-1.69;55.69;101202.25;4863788;29;8869;-80
2024/01/21 10:54:55;;;;;;;;;112.00;95.75;;;;;-1.43;54.69;101189.91;4829617;29;9008;-83
2024/01/21 10:57:24;;;;;;;;;53.00;48.00;;;;;-0.80;54.12;101183.78;4823198;29;10940;-81
2024/01/21 10:59:53;;;;;;;;;50.00;45.25;;;;;-0.35;54.98;101192.09;4823470;29;8882;-82
2024/01/21 11:02:22;;;;;;;;;52.75;45.00;;;;;-0.06;53.85;101182.31;4870075;29;8972;-81
2024/01/21 11:04:52;;;;;;;;;58.00;45.25;;;;;0.16;51.83;101181.66;4845593;29;8992;-83
2024/01/21 11:07:25;;;;;;;;;38.25;35.50;;;;;0.45;51.86;101183.00;4860291;29;8896;-83
2024/01/21 11:09:56;;;;;;;;;50.75;43.75;;;;;0.66;51.09;101177.06;4805710;29;8867;-81
2024/01/21 11:12:25;;;;;;;;;44.50;43.25;;;;;0.36;50.72;101169.66;4820743;29;8895;-83
2024/01/21 11:14:54;;;;;;;;;50.25;43.75;;;;;0.58;50.49;101173.25;4820686;29;9022;-80
2024/01/21 11:17:23;;;;;;;;;48.75;43.75;;;;;0.18;50.23;101179.13;4820027;29;9096;-80
2024/01/21 11:19:55;;;;;;;;;49.00;43.75;;;;;0.44;52.59;101191.59;4789995;29;8898;-79
2024/01/21 11:22:26;;;;;;;;;53.75;46.00;;;;;-0.14;49.83;101194.88;4819680;29;8908;-80
2024/01/21 11:24:56;;;;;;;;;38.00;36.75;;;;;-0.15;51.47;101187.03;4819911;29;8902;-79
2024/01/21 11:27:29;;;;;;;;;71.75;59.50;;;;;0.50;50.78;101179.75;4805241;29;8895;-79